Terminal Aerodrome Forecast
Issued by NWS Wilmington, NC

Home | Current Version | Previous Version | Text Only | Print | Product List | Glossary On
Versions: 1 2 3 4 5 6 7 8 9 10 11 12
172
FTUS42 KILM 271132
TAFLBT
TAF
KLBT 271132Z 2712/2812 07005KT P6SM SCT035
     FM271900 08006KT P6SM VCTS BKN050CB
     FM280200 VRB02KT P6SM SCT050 SCT120
      TEMPO 2806/2810 2SM BR SCT008
     FM281000 04005KT 4SM BR BKN008=

USA.gov is the U.S. government's official web portal to all federal, state and local government web resources and services.